createdAt,value
2022-10-29T00:01:43.989Z,99.90
2022-10-29T00:04:12.753Z,99.90
2022-10-29T00:06:41.446Z,99.90
2022-10-29T00:09:11.724Z,99.90
2022-10-29T00:11:40.427Z,99.90
2022-10-29T00:14:10.500Z,99.70
2022-10-29T00:16:40.825Z,99.20
2022-10-29T00:19:09.461Z,99.90
2022-10-29T00:21:40.569Z,99.90
2022-10-29T00:24:10.835Z,99.90
2022-10-29T00:26:39.467Z,99.90
2022-10-29T00:29:09.559Z,99.90
2022-10-29T00:31:38.296Z,99.80
2022-10-29T00:34:07.034Z,99.60
2022-10-29T00:36:35.684Z,99.90
2022-10-29T00:39:04.324Z,99.90
2022-10-29T00:41:32.980Z,99.90
2022-10-29T00:44:32.557Z,99.90
2022-10-29T00:47:05.443Z,99.20
2022-10-29T00:49:36.174Z,98.90
2022-10-29T00:52:06.033Z,99.50
2022-10-29T00:54:39.737Z,99.90
2022-10-29T00:57:11.960Z,99.90
2022-10-29T00:59:42.982Z,99.90
2022-10-29T01:02:12.375Z,99.90
2022-10-29T01:04:42.270Z,99.90
2022-10-29T01:07:13.400Z,99.90
2022-10-29T01:09:42.504Z,99.90
2022-10-29T01:12:36.721Z,99.70
2022-10-29T01:15:22.353Z,99.60
2022-10-29T01:18:04.770Z,98.90
2022-10-29T01:20:58.994Z,98.90
2022-10-29T01:24:00.182Z,98.80
2022-10-29T01:27:10.594Z,99.50
2022-10-29T01:29:52.689Z,99.90
2022-10-29T01:32:31.702Z,99.90
2022-10-29T01:35:05.818Z,99.90
2022-10-29T01:37:43.656Z,99.90
2022-10-29T01:40:24.618Z,99.90
2022-10-29T01:42:59.135Z,99.90
2022-10-29T01:45:32.830Z,99.90
2022-10-29T01:48:08.506Z,99.90
2022-10-29T01:50:40.169Z,99.90
2022-10-29T01:53:11.459Z,99.90
2022-10-29T01:55:40.195Z,99.90
2022-10-29T01:58:09.234Z,99.90
2022-10-29T02:00:49.358Z,99.90
2022-10-29T02:03:31.850Z,99.90
2022-10-29T02:06:06.203Z,99.90
2022-10-29T02:08:43.107Z,99.90
2022-10-29T02:11:19.306Z,99.90
2022-10-29T02:13:54.913Z,99.90
2022-10-29T02:16:26.191Z,99.90
2022-10-29T02:18:58.111Z,99.90
2022-10-29T02:21:26.856Z,99.90
2022-10-29T02:23:55.562Z,99.90
2022-10-29T02:26:24.539Z,99.90
2022-10-29T02:28:53.219Z,99.90
2022-10-29T02:31:21.860Z,99.90
2022-10-29T02:33:50.499Z,99.90
2022-10-29T02:36:20.636Z,99.90
2022-10-29T02:38:49.285Z,99.90
2022-10-29T02:41:18.018Z,99.90
2022-10-29T02:43:46.692Z,99.90
2022-10-29T02:46:17.054Z,99.90
2022-10-29T02:48:45.977Z,99.90
2022-10-29T02:51:15.053Z,99.90
2022-10-29T02:53:45.302Z,99.90
2022-10-29T02:56:13.947Z,99.90
2022-10-29T02:58:42.632Z,99.90
2022-10-29T03:01:11.351Z,99.90
2022-10-29T03:03:40.093Z,99.90
2022-10-29T03:06:14.434Z,99.90
2022-10-29T03:08:44.595Z,99.90
2022-10-29T03:11:13.488Z,99.90
2022-10-29T03:13:42.131Z,99.90
2022-10-29T03:16:11.097Z,99.90
2022-10-29T03:18:40.122Z,99.90
2022-10-29T03:21:08.846Z,99.90
2022-10-29T03:23:37.489Z,99.90
2022-10-29T03:26:07.580Z,99.90
2022-10-29T03:28:36.404Z,99.90
2022-10-29T03:31:05.211Z,99.90
2022-10-29T03:33:33.895Z,99.90
2022-10-29T03:36:04.041Z,99.90
2022-10-29T03:38:33.126Z,99.90
2022-10-29T03:41:02.449Z,99.90
2022-10-29T03:43:32.594Z,99.90
2022-10-29T03:46:01.238Z,99.90
2022-10-29T03:48:29.893Z,99.90
2022-10-29T03:51:00.185Z,99.90
2022-10-29T03:53:29.640Z,99.90
2022-10-29T03:55:59.168Z,99.90
2022-10-29T03:58:29.485Z,99.90
2022-10-29T04:01:01.270Z,99.90
2022-10-29T04:03:31.764Z,99.90
2022-10-29T04:06:02.452Z,99.90
2022-10-29T04:08:31.666Z,99.90
2022-10-29T04:11:00.328Z,99.90
2022-10-29T04:13:29.012Z,99.90
2022-10-29T04:15:59.128Z,99.90
2022-10-29T04:18:27.819Z,99.90
2022-10-29T04:29:28.208Z,99.90
2022-10-29T04:31:58.341Z,99.90
2022-10-29T04:34:27.140Z,99.90
2022-10-29T04:36:55.736Z,99.90
2022-10-29T04:39:24.489Z,99.90
2022-10-29T04:41:53.169Z,99.90
2022-10-29T04:44:21.901Z,99.90
2022-10-29T04:46:50.578Z,99.90
2022-10-29T04:49:20.754Z,99.90
2022-10-29T04:51:49.480Z,99.90
2022-10-29T04:54:18.151Z,99.90
2022-10-29T04:56:46.838Z,99.90
2022-10-29T04:59:15.612Z,99.90
2022-10-29T05:01:44.371Z,99.90
2022-10-29T05:04:12.996Z,99.90
2022-10-29T05:06:43.118Z,99.50
2022-10-29T05:09:11.988Z,99.90
2022-10-29T05:11:40.669Z,99.90
2022-10-29T05:14:09.436Z,99.90
2022-10-29T05:16:38.254Z,99.90
2022-10-29T05:19:07.119Z,99.30
2022-10-29T05:21:35.803Z,99.50
2022-10-29T05:24:06.103Z,99.50
2022-10-29T05:26:35.053Z,99.20
2022-10-29T05:29:03.912Z,99.40
2022-10-29T05:31:32.540Z,99.40
2022-10-29T05:34:01.277Z,99.90
2022-10-29T05:36:29.910Z,99.90
2022-10-29T05:38:58.563Z,99.90
2022-10-29T05:41:28.698Z,99.90
2022-10-29T05:43:57.343Z,99.90
2022-10-29T05:46:26.042Z,99.90
2022-10-29T05:48:54.656Z,99.90
2022-10-29T05:51:23.321Z,99.90
2022-10-29T05:53:52.277Z,99.90
2022-10-29T05:56:20.907Z,99.40
2022-10-29T05:58:52.024Z,99.30
2022-10-29T06:01:20.768Z,99.20
2022-10-29T06:03:49.641Z,99.00
2022-10-29T06:06:18.420Z,98.90
2022-10-29T06:08:47.080Z,97.90
2022-10-29T06:11:15.827Z,98.10
2022-10-29T06:13:44.458Z,97.90
2022-10-29T06:16:15.390Z,97.40
2022-10-29T06:18:44.053Z,98.30
2022-10-29T06:21:12.702Z,98.80
2022-10-29T06:23:41.353Z,98.80
2022-10-29T06:26:10.041Z,99.00
2022-10-29T06:28:38.679Z,99.10
2022-10-29T06:31:07.465Z,99.40
2022-10-29T06:33:37.494Z,99.50
2022-10-29T06:36:07.151Z,99.50
2022-10-29T06:38:35.783Z,99.40
2022-10-29T06:41:05.393Z,99.00
2022-10-29T06:43:34.262Z,99.80
2022-10-29T06:46:03.005Z,99.80
2022-10-29T06:48:31.696Z,99.90
2022-10-29T06:51:02.136Z,99.90
2022-10-29T06:53:31.618Z,99.90
2022-10-29T06:56:00.816Z,99.90
2022-10-29T06:58:29.553Z,97.10
2022-10-29T07:03:31.802Z,96.20
2022-10-29T07:06:01.902Z,96.10
2022-10-29T07:08:33.370Z,95.70
2022-10-29T07:11:03.121Z,96.40
2022-10-29T07:13:31.848Z,96.50
2022-10-29T07:16:00.531Z,96.70
2022-10-29T07:18:29.203Z,96.80
2022-10-29T07:20:57.868Z,96.60
2022-10-29T07:23:28.052Z,96.50
2022-10-29T07:25:57.004Z,96.40
2022-10-29T07:28:25.859Z,96.20
2022-10-29T07:31:00.679Z,96.10
2022-10-29T07:33:31.233Z,96.20
2022-10-29T07:36:00.580Z,96.40
2022-10-29T07:38:30.608Z,95.90
2022-10-29T07:40:59.321Z,96.00
2022-10-29T07:43:27.999Z,96.20
2022-10-29T07:45:56.714Z,96.70
2022-10-29T07:48:25.393Z,96.80
2022-10-29T07:50:54.060Z,96.80
2022-10-29T07:53:22.672Z,96.80
2022-10-29T07:55:56.016Z,95.80
2022-10-29T07:58:25.156Z,96.10
2022-10-29T08:00:54.536Z,95.80
2022-10-29T08:03:23.338Z,95.20
2022-10-29T08:05:56.251Z,94.90
2022-10-29T08:08:25.483Z,94.90
2022-10-29T08:11:00.172Z,94.90
2022-10-29T08:13:29.022Z,94.60
2022-10-29T08:15:57.919Z,95.20
2022-10-29T08:18:27.547Z,94.60
2022-10-29T08:20:56.234Z,94.10
2022-10-29T08:23:25.090Z,92.60
2022-10-29T08:25:55.157Z,91.50
2022-10-29T08:28:25.767Z,91.10
2022-10-29T08:30:54.676Z,92.10
2022-10-29T08:33:23.298Z,91.10
2022-10-29T08:35:52.829Z,91.00
2022-10-29T08:38:23.436Z,90.50
2022-10-29T08:41:12.261Z,88.70
2022-10-29T08:44:09.260Z,88.80
2022-10-29T08:46:45.314Z,86.90
2022-10-29T08:49:19.021Z,83.80
2022-10-29T08:51:56.521Z,86.40
2022-10-29T08:54:30.907Z,81.80
2022-10-29T08:57:09.661Z,82.60
2022-10-29T08:59:45.068Z,80.30
2022-10-29T09:02:18.261Z,79.90
2022-10-29T09:04:47.779Z,79.60
2022-10-29T09:07:38.149Z,79.40
2022-10-29T09:10:13.753Z,78.90
2022-10-29T09:13:07.846Z,78.60
2022-10-29T09:16:01.268Z,78.80
2022-10-29T09:18:38.230Z,78.80
2022-10-29T09:21:17.350Z,78.40
2022-10-29T09:24:01.998Z,80.00
2022-10-29T09:26:34.573Z,80.00
2022-10-29T09:29:28.473Z,78.70
2022-10-29T09:32:01.915Z,77.50
2022-10-29T09:34:33.370Z,77.20
2022-10-29T09:37:02.101Z,78.00
2022-10-29T09:39:35.227Z,78.00
2022-10-29T09:42:10.306Z,78.30
2022-10-29T09:44:47.467Z,78.90
2022-10-29T09:47:26.653Z,79.70
2022-10-29T09:50:08.499Z,78.60
2022-10-29T09:52:41.240Z,78.70
2022-10-29T09:55:20.049Z,78.50
2022-10-29T09:57:49.829Z,78.90
2022-10-29T10:00:22.686Z,79.00
2022-10-29T10:02:57.807Z,77.80
2022-10-29T10:05:29.688Z,78.20
2022-10-29T10:08:09.912Z,78.30
2022-10-29T10:10:51.062Z,79.00
2022-10-29T10:13:23.211Z,76.70
2022-10-29T10:15:59.196Z,76.80
2022-10-29T10:18:29.451Z,76.50
2022-10-29T10:21:05.554Z,76.60
2022-10-29T10:23:43.892Z,75.70
2022-10-29T10:26:34.667Z,72.90
2022-10-29T10:29:12.237Z,73.60
2022-10-29T10:31:43.414Z,75.30
2022-10-29T10:34:18.416Z,73.40
2022-10-29T10:36:51.588Z,73.20
2022-10-29T10:39:28.011Z,72.60
2022-10-29T10:41:58.030Z,74.50
2022-10-29T10:44:27.921Z,73.80
2022-10-29T10:47:00.805Z,73.40
2022-10-29T10:49:35.514Z,72.20
2022-10-29T10:52:06.846Z,72.80
2022-10-29T10:54:38.867Z,73.00
2022-10-29T10:57:22.022Z,67.10
2022-10-29T11:00:01.197Z,67.30
2022-10-29T11:02:40.730Z,68.30
2022-10-29T11:05:17.308Z,69.00
2022-10-29T11:07:51.514Z,67.50
2022-10-29T11:10:24.356Z,67.60
2022-10-29T11:12:56.175Z,67.90
2022-10-29T11:15:35.968Z,67.40
2022-10-29T11:20:58.189Z,67.60
2022-10-29T11:23:35.132Z,65.50
2022-10-29T11:26:10.215Z,66.80
2022-10-29T11:28:42.277Z,65.50
2022-10-29T11:31:19.216Z,65.50
2022-10-29T11:33:56.232Z,66.00
2022-10-29T11:36:28.391Z,66.30
2022-10-29T11:39:03.674Z,66.60
2022-10-29T11:41:39.743Z,65.70
2022-10-29T11:44:13.177Z,65.40
2022-10-29T11:46:54.150Z,64.30
2022-10-29T11:49:39.789Z,63.70
2022-10-29T11:52:13.177Z,63.20
2022-10-29T11:54:54.249Z,62.90
2022-10-29T11:57:30.025Z,62.20
2022-10-29T12:00:06.894Z,62.70
2022-10-29T12:03:10.883Z,62.00
2022-10-29T12:05:45.574Z,60.90
2022-10-29T12:08:31.556Z,60.50
2022-10-29T12:11:08.352Z,60.40
2022-10-29T12:13:51.162Z,60.70
2022-10-29T12:16:41.862Z,60.30
2022-10-29T12:19:23.067Z,57.00
2022-10-29T12:21:58.643Z,57.70
2022-10-29T12:24:41.897Z,56.60
2022-10-29T12:27:17.187Z,55.20
2022-10-29T12:29:55.764Z,52.80
2022-10-29T12:32:27.662Z,51.50
2022-10-29T12:35:03.125Z,52.00
2022-10-29T12:37:41.596Z,50.10
2022-10-29T12:40:17.359Z,47.60
2022-10-29T12:42:47.872Z,48.90
2022-10-29T12:45:34.771Z,48.20
2022-10-29T12:48:11.399Z,47.40
2022-10-29T12:50:54.948Z,46.30
2022-10-29T12:53:33.257Z,45.20
2022-10-29T12:56:05.618Z,45.00
2022-10-29T12:58:50.047Z,44.80
2022-10-29T13:02:10.420Z,44.80
2022-10-29T13:04:36.122Z,47.70
2022-10-29T13:07:24.325Z,50.10
2022-10-29T13:10:36.157Z,53.10
2022-10-29T13:13:20.000Z,56.10
2022-10-29T13:15:58.676Z,57.30
2022-10-29T13:18:35.466Z,58.40
2022-10-29T13:21:07.006Z,59.20
2022-10-29T13:23:37.701Z,60.60
2022-10-29T13:26:08.407Z,61.30
2022-10-29T13:28:51.879Z,62.90
2022-10-29T13:31:46.932Z,64.20
2022-10-29T13:34:54.028Z,65.20
2022-10-29T13:37:56.347Z,67.20
2022-10-29T13:40:56.062Z,67.60
2022-10-29T13:43:26.691Z,67.40
2022-10-29T13:46:30.054Z,66.50
2022-10-29T13:49:02.440Z,66.60
2022-10-29T13:51:41.889Z,66.40
2022-10-29T13:54:20.590Z,66.60
2022-10-29T13:56:54.447Z,66.50
2022-10-29T13:59:33.704Z,66.20
2022-10-29T14:02:15.351Z,65.80
2022-10-29T14:04:50.705Z,66.40
2022-10-29T14:07:23.231Z,65.20
2022-10-29T14:09:56.423Z,65.80
2022-10-29T14:12:28.894Z,65.80
2022-10-29T14:15:05.744Z,65.90
2022-10-29T14:17:34.433Z,65.90
2022-10-29T14:20:03.179Z,67.20
2022-10-29T14:22:35.774Z,67.40
2022-10-29T14:25:20.708Z,67.40
2022-10-29T14:27:49.509Z,67.90
2022-10-29T14:30:22.041Z,68.00
2022-10-29T14:32:50.720Z,67.40
2022-10-29T14:35:19.511Z,68.20
2022-10-29T14:37:51.686Z,70.00
2022-10-29T14:40:23.098Z,71.70
2022-10-29T14:42:55.323Z,74.20
2022-10-29T14:45:28.716Z,75.90
2022-10-29T14:47:58.981Z,77.80
2022-10-29T14:50:29.367Z,79.70
2022-10-29T14:53:01.372Z,81.00
2022-10-29T14:55:34.252Z,82.00
2022-10-29T14:58:06.020Z,82.90
2022-10-29T15:00:37.912Z,83.90
2022-10-29T15:03:08.818Z,84.70
2022-10-29T15:05:39.025Z,85.30
2022-10-29T15:08:19.143Z,88.20
2022-10-29T15:10:49.390Z,87.40
2022-10-29T15:13:30.808Z,87.90
2022-10-29T15:16:03.506Z,87.00
2022-10-29T15:18:34.415Z,88.70
2022-10-29T15:21:03.670Z,89.60
2022-10-29T15:23:35.696Z,90.00
2022-10-29T15:26:06.775Z,89.30
2022-10-29T15:28:40.883Z,90.30
2022-10-29T15:31:20.752Z,90.60
2022-10-29T15:33:52.638Z,91.10
2022-10-29T15:36:21.367Z,91.30
2022-10-29T15:39:13.473Z,92.30
2022-10-29T15:41:48.884Z,92.30
2022-10-29T15:44:38.552Z,93.00
2022-10-29T15:47:29.483Z,93.20
2022-10-29T15:49:58.212Z,93.30
2022-10-29T15:52:32.104Z,94.60
2022-10-29T15:55:02.157Z,96.90
2022-10-29T15:57:31.613Z,97.80
2022-10-29T16:00:06.006Z,97.80
2022-10-29T16:02:36.929Z,98.80
2022-10-29T16:05:06.523Z,99.70
2022-10-29T16:07:35.419Z,99.40
2022-10-29T16:10:04.118Z,98.40
2022-10-29T16:12:33.212Z,99.10
2022-10-29T16:15:01.840Z,99.70
2022-10-29T16:17:30.498Z,99.90
2022-10-29T16:20:00.650Z,99.90
2022-10-29T16:22:31.027Z,99.90
2022-10-29T16:24:59.844Z,99.90
2022-10-29T16:27:28.482Z,99.90
2022-10-29T16:29:57.226Z,99.90
2022-10-29T16:32:26.498Z,99.90
2022-10-29T16:34:55.133Z,99.90
2022-10-29T16:37:25.598Z,99.90
2022-10-29T16:39:54.274Z,99.90
2022-10-29T16:42:31.165Z,99.90
2022-10-29T16:44:59.904Z,99.90
2022-10-29T16:47:28.749Z,99.90
2022-10-29T16:49:57.473Z,99.90
2022-10-29T16:52:29.594Z,99.90
2022-10-29T16:54:58.881Z,99.90
2022-10-29T16:57:29.515Z,99.90
2022-10-29T16:59:58.363Z,99.90
2022-10-29T17:02:28.148Z,99.90
2022-10-29T17:04:57.141Z,99.90
2022-10-29T17:07:27.193Z,99.90
2022-10-29T17:09:55.873Z,99.90
2022-10-29T17:12:24.513Z,99.90
2022-10-29T17:14:53.228Z,99.90
2022-10-29T17:17:22.017Z,99.90
2022-10-29T17:19:50.704Z,99.90
2022-10-29T17:22:19.455Z,99.90
2022-10-29T17:24:49.585Z,99.90
2022-10-29T17:27:18.262Z,99.90
2022-10-29T17:29:46.920Z,99.90
2022-10-29T17:32:15.640Z,99.90
2022-10-29T17:34:44.403Z,99.90
2022-10-29T17:37:13.232Z,99.90
2022-10-29T17:39:41.921Z,99.90
2022-10-29T17:42:12.027Z,99.90
2022-10-29T17:44:40.730Z,99.90
2022-10-29T17:47:11.224Z,99.90
2022-10-29T17:49:39.974Z,99.90
2022-10-29T17:52:08.723Z,99.90
2022-10-29T17:54:37.461Z,99.90
2022-10-29T17:57:06.094Z,99.90
2022-10-29T17:59:36.538Z,99.90
2022-10-29T18:02:05.300Z,99.90
2022-10-29T18:04:34.094Z,99.90
2022-10-29T18:07:02.747Z,99.90
2022-10-29T18:09:31.386Z,99.90
2022-10-29T18:12:00.361Z,99.90
2022-10-29T18:14:29.017Z,99.90
2022-10-29T18:16:59.596Z,99.90
2022-10-29T18:19:28.322Z,99.90
2022-10-29T18:21:56.977Z,99.90
2022-10-29T18:24:26.729Z,99.90
2022-10-29T18:26:55.445Z,99.90
2022-10-29T18:29:24.242Z,99.90
2022-10-29T18:31:52.898Z,99.90
2022-10-29T18:34:23.009Z,99.90
2022-10-29T18:36:51.648Z,99.90
2022-10-29T18:39:20.288Z,99.90
2022-10-29T18:41:48.904Z,99.90
2022-10-29T18:44:17.550Z,99.90
2022-10-29T18:46:46.169Z,99.90
2022-10-29T18:49:15.734Z,99.90
2022-10-29T18:51:46.089Z,99.90
2022-10-29T18:54:16.234Z,99.90
2022-10-29T18:56:44.980Z,99.90
2022-10-29T18:59:14.026Z,99.90
2022-10-29T19:01:42.888Z,99.90
2022-10-29T19:04:15.973Z,99.90
2022-10-29T19:06:46.248Z,99.90
2022-10-29T19:09:14.900Z,99.90
2022-10-29T19:11:43.561Z,99.90
2022-10-29T19:14:14.828Z,99.50
2022-10-29T19:16:43.544Z,99.40
2022-10-29T19:19:16.041Z,99.30
2022-10-29T19:21:48.717Z,99.20
2022-10-29T19:24:17.425Z,99.50
2022-10-29T19:26:46.283Z,99.30
2022-10-29T19:29:15.512Z,99.60
2022-10-29T19:31:46.312Z,99.70
2022-10-29T19:34:15.025Z,99.70
2022-10-29T19:36:43.640Z,99.50
2022-10-29T19:39:13.749Z,99.00
2022-10-29T19:41:42.376Z,99.20
2022-10-29T19:44:11.064Z,99.20
2022-10-29T19:46:39.978Z,99.60
2022-10-29T19:49:08.709Z,99.70
2022-10-29T19:51:37.361Z,99.80
2022-10-29T19:54:07.351Z,99.20
2022-10-29T19:56:37.416Z,99.50
2022-10-29T19:59:06.465Z,98.90
2022-10-29T20:01:35.290Z,98.20
2022-10-29T20:04:04.652Z,98.90
2022-10-29T20:06:33.276Z,98.40
2022-10-29T20:09:03.495Z,98.50
2022-10-29T20:11:32.124Z,98.40
2022-10-29T20:14:02.572Z,99.70
2022-10-29T20:16:31.226Z,99.80
2022-10-29T20:18:59.933Z,99.90
2022-10-29T20:21:28.596Z,99.90
2022-10-29T20:23:58.086Z,99.90
2022-10-29T20:26:26.734Z,99.90
2022-10-29T20:28:57.176Z,99.30
2022-10-29T20:31:31.004Z,98.30
2022-10-29T20:34:01.331Z,96.60
2022-10-29T20:36:31.823Z,95.80
2022-10-29T20:39:01.064Z,95.00
2022-10-29T20:41:30.257Z,94.60
2022-10-29T20:44:01.308Z,92.60
2022-10-29T20:46:31.482Z,92.50
2022-10-29T20:49:00.358Z,93.60
2022-10-29T20:51:29.273Z,94.50
2022-10-29T20:53:58.304Z,94.30
2022-10-29T20:56:28.329Z,93.00
2022-10-29T20:58:57.202Z,93.10
2022-10-29T21:01:26.638Z,93.70
2022-10-29T21:03:56.752Z,93.80
2022-10-29T21:06:25.469Z,93.80
2022-10-29T21:08:54.435Z,93.90
2022-10-29T21:11:24.732Z,93.30
2022-10-29T21:13:53.388Z,92.40
2022-10-29T21:16:23.475Z,91.90
2022-10-29T21:18:53.680Z,91.90
2022-10-29T21:21:24.382Z,92.60
2022-10-29T21:23:53.544Z,92.10
2022-10-29T21:26:24.174Z,91.30
2022-10-29T21:28:54.618Z,91.30
2022-10-29T21:31:24.504Z,92.20
2022-10-29T21:33:54.807Z,90.30
2022-10-29T21:36:25.253Z,90.90
2022-10-29T21:38:53.992Z,90.00
2022-10-29T21:41:22.580Z,88.00
2022-10-29T21:43:51.342Z,88.90
2022-10-29T21:46:19.950Z,90.60
2022-10-29T21:48:49.468Z,90.60
2022-10-29T21:51:18.496Z,90.50
2022-10-29T21:53:48.660Z,90.30
2022-10-29T21:56:17.318Z,87.90
2022-10-29T21:58:46.014Z,90.40
2022-10-29T22:01:16.428Z,90.40
2022-10-29T22:03:46.744Z,91.50
2022-10-29T22:06:17.289Z,92.50
2022-10-29T22:08:48.006Z,92.60
2022-10-29T22:11:17.005Z,90.80
2022-10-29T22:13:45.645Z,91.10
2022-10-29T22:16:14.770Z,90.60
2022-10-29T22:18:43.581Z,87.30
2022-10-29T22:21:15.435Z,90.20
2022-10-29T22:23:45.304Z,87.00
2022-10-29T22:26:17.209Z,86.20
2022-10-29T22:28:47.310Z,86.20
2022-10-29T22:31:22.798Z,87.40
2022-10-29T22:33:51.577Z,88.80
2022-10-29T22:36:21.847Z,89.10
2022-10-29T22:38:54.955Z,90.70
2022-10-29T22:41:27.051Z,92.10
2022-10-29T22:43:57.884Z,91.00
2022-10-29T22:46:27.216Z,92.60
2022-10-29T22:48:56.034Z,94.20
2022-10-29T22:51:26.908Z,95.30
2022-10-29T22:53:55.810Z,95.90
2022-10-29T22:56:27.281Z,88.10
2022-10-29T22:58:56.069Z,88.80
2022-10-29T23:01:27.259Z,91.60
2022-10-29T23:03:56.173Z,97.20
2022-10-29T23:06:26.484Z,95.90
2022-10-29T23:08:56.545Z,93.20
2022-10-29T23:11:28.286Z,94.50
2022-10-29T23:13:58.354Z,93.70
2022-10-29T23:16:28.455Z,92.40
2022-10-29T23:18:59.675Z,93.20
2022-10-29T23:21:28.733Z,94.60
2022-10-29T23:23:57.710Z,93.40
2022-10-29T23:26:29.183Z,93.90
2022-10-29T23:28:59.009Z,95.30
2022-10-29T23:31:29.049Z,95.30
2022-10-29T23:33:58.880Z,95.40
2022-10-29T23:36:28.542Z,92.80
2022-10-29T23:38:57.787Z,93.60
2022-10-29T23:41:28.197Z,93.90
2022-10-29T23:43:56.900Z,94.00
2022-10-29T23:46:25.873Z,94.00
2022-10-29T23:48:54.729Z,93.60
2022-10-29T23:51:24.501Z,93.40
2022-10-29T23:53:56.509Z,92.60
2022-10-29T23:56:28.097Z,92.80
2022-10-29T23:58:56.944Z,93.20
